createdAt,value
2018-03-19T00:02:01.058Z,18.70
2018-03-19T00:04:27.810Z,18.85
2018-03-19T00:06:54.564Z,20.17
2018-03-19T00:09:21.463Z,18.60
2018-03-19T00:11:48.082Z,19.45
2018-03-19T00:14:14.830Z,18.80
2018-03-19T00:16:41.597Z,18.42
2018-03-19T00:19:08.347Z,19.20
2018-03-19T00:21:35.079Z,18.75
2018-03-19T00:24:01.825Z,20.65
2018-03-19T00:26:28.584Z,18.60
2018-03-19T00:28:55.309Z,18.40
2018-03-19T00:31:22.053Z,21.02
2018-03-19T00:33:48.795Z,18.73
2018-03-19T00:36:15.546Z,19.55
2018-03-19T00:38:42.294Z,18.50
2018-03-19T00:41:09.050Z,19.35
2018-03-19T00:43:35.805Z,17.58
2018-03-19T00:46:02.540Z,20.62
2018-03-19T00:48:29.286Z,18.95
2018-03-19T00:50:56.030Z,20.23
2018-03-19T00:53:22.777Z,19.80
2018-03-19T00:55:49.507Z,19.40
2018-03-19T00:58:16.279Z,19.25
2018-03-19T01:00:43.053Z,18.45
2018-03-19T01:03:09.802Z,17.62
2018-03-19T01:05:36.547Z,18.17
2018-03-19T01:08:03.288Z,19.73
2018-03-19T01:10:30.043Z,19.37
2018-03-19T01:12:56.802Z,17.23
2018-03-19T01:15:23.540Z,20.25
2018-03-19T01:17:50.284Z,18.08
2018-03-19T01:20:17.020Z,17.52
2018-03-19T01:22:43.820Z,19.10
2018-03-19T01:25:10.573Z,19.05
2018-03-19T01:27:37.314Z,17.92
2018-03-19T01:30:04.058Z,19.08
2018-03-19T01:32:30.803Z,20.52
2018-03-19T01:34:57.560Z,18.87
2018-03-19T01:37:24.304Z,19.15
2018-03-19T01:39:51.048Z,17.40
2018-03-19T01:42:17.867Z,20.70
2018-03-19T01:44:44.613Z,18.25
2018-03-19T01:47:11.398Z,18.00
2018-03-19T01:49:38.135Z,18.40
2018-03-19T01:52:04.884Z,18.42
2018-03-19T01:54:31.623Z,17.05
2018-03-19T01:56:58.358Z,19.25
2018-03-19T01:59:25.105Z,18.37
2018-03-19T02:01:51.834Z,17.75
2018-03-19T02:04:18.620Z,20.45
2018-03-19T02:06:45.363Z,19.40
2018-03-19T02:09:12.104Z,19.50
2018-03-19T02:11:38.848Z,19.00
2018-03-19T02:14:05.631Z,18.35
2018-03-19T02:16:32.377Z,20.05
2018-03-19T02:18:59.210Z,20.65
2018-03-19T02:21:25.972Z,18.62
2018-03-19T02:23:52.719Z,18.50
2018-03-19T02:26:19.448Z,19.70
2018-03-19T02:28:46.175Z,18.92
2018-03-19T02:31:12.930Z,19.65
2018-03-19T02:33:39.657Z,16.95
2018-03-19T02:36:06.434Z,19.70
2018-03-19T02:38:33.168Z,18.05
2018-03-19T02:40:59.941Z,18.62
2018-03-19T02:43:26.697Z,19.42
2018-03-19T02:45:53.441Z,19.75
2018-03-19T02:48:20.193Z,21.73
2018-03-19T02:50:46.964Z,20.05
2018-03-19T02:53:13.707Z,19.20
2018-03-19T02:55:40.475Z,18.33
2018-03-19T02:58:07.203Z,17.52
2018-03-19T03:00:33.987Z,18.87
2018-03-19T03:03:00.745Z,17.58
2018-03-19T03:05:27.487Z,19.00
2018-03-19T03:07:54.226Z,17.25
2018-03-19T03:10:20.965Z,16.90
2018-03-19T03:12:47.713Z,17.83
2018-03-19T03:15:14.487Z,17.60
2018-03-19T03:17:41.217Z,19.40
2018-03-19T03:20:07.960Z,18.25
2018-03-19T03:22:34.701Z,18.52
2018-03-19T03:25:01.440Z,17.50
2018-03-19T03:27:28.279Z,18.50
2018-03-19T03:29:55.030Z,18.42
2018-03-19T03:32:21.774Z,17.90
2018-03-19T03:34:48.507Z,17.80
2018-03-19T03:37:15.255Z,17.27
2018-03-19T03:39:41.991Z,17.95
2018-03-19T03:42:08.798Z,17.83
2018-03-19T03:44:35.547Z,19.12
2018-03-19T03:47:02.334Z,18.50
2018-03-19T03:49:29.073Z,19.02
2018-03-19T03:51:55.826Z,18.75
2018-03-19T03:54:22.632Z,17.35
2018-03-19T03:56:49.380Z,17.35
2018-03-19T03:59:16.136Z,17.12
2018-03-19T04:01:42.862Z,18.08
2018-03-19T04:04:09.619Z,17.48
2018-03-19T04:06:36.353Z,16.87
2018-03-19T04:09:03.170Z,16.23
2018-03-19T04:11:29.894Z,16.70
2018-03-19T04:13:56.693Z,18.05
2018-03-19T04:16:23.431Z,16.00
2018-03-19T04:18:50.180Z,18.70
2018-03-19T04:21:16.918Z,16.62
2018-03-19T04:23:43.643Z,19.37
2018-03-19T04:26:10.376Z,16.08
2018-03-19T04:28:37.139Z,17.90
2018-03-19T04:31:03.904Z,16.65
2018-03-19T04:33:30.653Z,17.55
2018-03-19T04:35:57.406Z,17.98
2018-03-19T04:38:24.154Z,17.05
2018-03-19T04:40:50.896Z,15.98
2018-03-19T04:43:18.554Z,17.62
2018-03-19T04:45:45.426Z,17.70
2018-03-19T04:48:12.339Z,19.10
2018-03-19T04:50:39.228Z,18.10
2018-03-19T04:53:05.985Z,17.50
2018-03-19T04:55:32.717Z,18.70
2018-03-19T04:57:59.539Z,18.40
2018-03-19T05:00:26.352Z,18.70
2018-03-19T05:02:53.147Z,17.92
2018-03-19T05:05:19.891Z,19.42
2018-03-19T05:07:46.631Z,17.98
2018-03-19T05:10:13.372Z,16.60
2018-03-19T05:12:40.118Z,19.67
2018-03-19T05:15:06.862Z,19.90
2018-03-19T05:17:33.670Z,19.15
2018-03-19T05:20:00.455Z,20.90
2018-03-19T05:22:27.211Z,18.45
2018-03-19T05:24:53.940Z,19.75
2018-03-19T05:27:20.674Z,18.37
2018-03-19T05:29:47.426Z,18.60
2018-03-19T05:32:14.166Z,19.73
2018-03-19T05:34:40.913Z,18.27
2018-03-19T05:37:07.643Z,19.62
2018-03-19T05:39:34.363Z,18.40
2018-03-19T05:42:01.162Z,19.05
2018-03-19T05:44:27.917Z,19.12
2018-03-19T05:46:54.659Z,18.08
2018-03-19T05:49:21.417Z,18.62
2018-03-19T05:51:48.154Z,21.17
2018-03-19T05:54:14.894Z,18.55
2018-03-19T05:56:41.665Z,20.55
2018-03-19T05:59:08.420Z,20.02
2018-03-19T06:01:35.231Z,19.70
2018-03-19T06:04:01.992Z,19.62
2018-03-19T06:06:28.755Z,18.60
2018-03-19T06:08:55.504Z,19.25
2018-03-19T06:11:22.274Z,20.52
2018-03-19T06:13:49.018Z,19.35
2018-03-19T06:16:15.763Z,18.55
2018-03-19T06:18:42.496Z,18.87
2018-03-19T06:21:09.251Z,18.27
2018-03-19T06:23:35.996Z,20.00
2018-03-19T06:26:02.762Z,18.65
2018-03-19T06:28:29.502Z,18.25
2018-03-19T06:30:56.252Z,19.70
2018-03-19T06:33:23.017Z,19.65
2018-03-19T06:35:49.758Z,17.65
2018-03-19T06:38:16.537Z,18.15
2018-03-19T06:40:43.393Z,19.33
2018-03-19T06:43:10.153Z,18.62
2018-03-19T06:45:36.907Z,20.10
2018-03-19T06:48:03.646Z,19.05
2018-03-19T06:50:30.401Z,21.55
2018-03-19T06:52:57.160Z,19.65
2018-03-19T06:55:23.891Z,21.62
2018-03-19T06:57:50.657Z,19.12
2018-03-19T07:00:17.494Z,20.00
2018-03-19T07:02:44.271Z,20.65
2018-03-19T07:05:11.057Z,22.00
2018-03-19T07:07:37.825Z,20.35
2018-03-19T07:10:04.562Z,20.60
2018-03-19T07:12:31.310Z,19.95
2018-03-19T07:14:58.054Z,18.87
2018-03-19T07:17:24.800Z,19.48
2018-03-19T07:19:51.532Z,19.67
2018-03-19T07:22:18.269Z,18.20
2018-03-19T07:24:45.112Z,18.73
2018-03-19T07:27:11.860Z,20.15
2018-03-19T07:29:38.617Z,18.25
2018-03-19T07:32:05.388Z,19.95
2018-03-19T07:34:32.158Z,18.58
2018-03-19T07:36:58.921Z,18.27
2018-03-19T07:39:25.656Z,18.83
2018-03-19T07:41:52.418Z,19.17
2018-03-19T07:44:19.256Z,19.10
2018-03-19T07:46:45.998Z,18.02
2018-03-19T07:49:12.740Z,18.25
2018-03-19T07:51:39.475Z,18.33
2018-03-19T07:54:06.218Z,19.00
2018-03-19T07:56:32.981Z,18.33
2018-03-19T07:58:59.722Z,18.50
2018-03-19T08:01:26.553Z,17.08
2018-03-19T08:03:53.322Z,16.58
2018-03-19T08:06:20.056Z,18.70
2018-03-19T08:08:46.803Z,17.85
2018-03-19T08:11:13.595Z,17.00
2018-03-19T08:13:40.370Z,18.97
2018-03-19T08:16:07.129Z,18.92
2018-03-19T08:18:33.948Z,19.27
2018-03-19T08:21:00.667Z,20.17
2018-03-19T08:23:27.411Z,18.30
2018-03-19T08:25:54.202Z,17.90
2018-03-19T08:28:27.119Z,19.37
2018-03-19T08:30:53.873Z,18.37
2018-03-19T08:33:20.866Z,17.98
2018-03-19T08:35:47.628Z,20.37
2018-03-19T08:38:14.371Z,19.12
2018-03-19T08:40:41.142Z,18.95
2018-03-19T08:43:07.890Z,19.20
2018-03-19T08:45:34.626Z,20.33
2018-03-19T08:48:01.364Z,18.73
2018-03-19T08:50:28.115Z,20.12
2018-03-19T08:52:54.844Z,20.20
2018-03-19T08:55:21.614Z,17.65
2018-03-19T08:57:48.356Z,21.17
2018-03-19T09:00:15.104Z,19.08
2018-03-19T09:02:41.839Z,18.83
2018-03-19T09:05:08.585Z,18.08
2018-03-19T09:07:35.335Z,19.73
2018-03-19T09:10:02.094Z,19.98
2018-03-19T09:12:28.828Z,20.00
2018-03-19T09:14:55.569Z,18.05
2018-03-19T09:17:22.309Z,21.27
2018-03-19T09:19:49.075Z,20.30
2018-03-19T09:22:15.854Z,20.75
2018-03-19T09:24:42.600Z,19.45
2018-03-19T09:27:09.337Z,19.77
2018-03-19T09:29:36.104Z,19.55
2018-03-19T09:32:02.912Z,19.98
2018-03-19T09:34:29.645Z,19.55
2018-03-19T09:36:56.373Z,20.17
2018-03-19T09:39:23.092Z,18.57
2018-03-19T09:41:49.819Z,19.40
2018-03-19T09:44:16.573Z,20.12
2018-03-19T09:46:43.348Z,18.50
2018-03-19T09:49:10.078Z,17.55
2018-03-19T09:51:36.822Z,19.92
2018-03-19T09:54:03.569Z,21.33
2018-03-19T09:56:30.310Z,18.87
2018-03-19T09:58:57.352Z,18.42
2018-03-19T10:01:24.096Z,21.10
2018-03-19T10:03:50.834Z,17.83
2018-03-19T10:06:17.569Z,18.52
2018-03-19T10:08:44.321Z,18.70
2018-03-19T10:11:11.057Z,19.80
2018-03-19T10:13:37.812Z,19.90
2018-03-19T10:16:05.057Z,17.70
2018-03-19T10:18:31.835Z,16.20
2018-03-19T10:20:58.571Z,18.03
2018-03-19T10:23:25.308Z,16.83
2018-03-19T10:25:52.042Z,17.40
2018-03-19T10:28:18.771Z,18.00
2018-03-19T10:30:45.587Z,19.13
2018-03-19T10:33:12.323Z,16.50
2018-03-19T10:35:39.122Z,15.40
2018-03-19T10:38:05.845Z,16.60
2018-03-19T10:40:32.647Z,17.63
2018-03-19T10:42:59.387Z,17.93
2018-03-19T10:45:26.126Z,16.47
2018-03-19T10:47:52.864Z,16.30
2018-03-19T10:50:19.661Z,15.97
2018-03-19T10:52:46.443Z,15.50
2018-03-19T10:55:13.173Z,18.15
2018-03-19T10:57:39.901Z,17.63
2018-03-19T11:00:06.681Z,16.33
2018-03-19T11:02:33.452Z,16.03
2018-03-19T11:05:06.056Z,15.17
2018-03-19T11:07:38.554Z,14.03
2018-03-19T11:10:05.343Z,13.10
2018-03-19T11:12:32.074Z,15.27
2018-03-19T11:14:58.862Z,14.13
2018-03-19T11:17:25.588Z,13.90
2018-03-19T11:19:52.338Z,14.53
2018-03-19T11:22:19.061Z,14.37
2018-03-19T11:24:45.816Z,15.15
2018-03-19T11:27:12.540Z,14.40
2018-03-19T11:29:39.301Z,15.10
2018-03-19T11:32:06.039Z,14.03
2018-03-19T11:34:32.782Z,13.50
2018-03-19T11:36:59.539Z,14.43
2018-03-19T11:39:26.286Z,14.43
2018-03-19T11:41:53.049Z,15.05
2018-03-19T11:44:19.814Z,12.90
2018-03-19T11:46:46.572Z,12.60
2018-03-19T11:49:13.316Z,14.63
2018-03-19T11:51:40.051Z,15.23
2018-03-19T11:54:06.807Z,13.62
2018-03-19T11:56:33.555Z,14.60
2018-03-19T11:59:00.307Z,14.00
2018-03-19T12:01:27.058Z,13.60
2018-03-19T12:03:53.875Z,14.43
2018-03-19T12:06:20.610Z,14.55
2018-03-19T12:08:47.357Z,13.52
2018-03-19T12:11:14.091Z,13.68
2018-03-19T12:13:40.819Z,14.80
2018-03-19T12:16:07.555Z,13.67
2018-03-19T12:18:34.283Z,13.27
2018-03-19T12:21:01.029Z,15.27
2018-03-19T12:23:27.801Z,14.73
2018-03-19T12:25:54.523Z,13.70
2018-03-19T12:28:21.251Z,13.80
2018-03-19T12:30:58.968Z,15.37
2018-03-19T12:33:25.704Z,14.60
2018-03-19T12:35:52.435Z,13.53
2018-03-19T12:38:19.168Z,12.80
2018-03-19T12:40:45.921Z,16.12
2018-03-19T12:43:12.668Z,14.07
2018-03-19T12:45:39.420Z,14.37
2018-03-19T12:48:06.150Z,15.20
2018-03-19T12:50:32.910Z,15.23
2018-03-19T12:52:59.754Z,16.95
2018-03-19T12:55:26.504Z,15.57
2018-03-19T12:57:53.265Z,15.93
2018-03-19T13:00:20.019Z,16.65
2018-03-19T13:02:46.810Z,15.50
2018-03-19T13:05:13.537Z,16.20
2018-03-19T13:07:40.307Z,17.80
2018-03-19T13:10:07.025Z,18.00
2018-03-19T13:12:33.762Z,16.83
2018-03-19T13:15:00.519Z,17.90
2018-03-19T13:17:27.314Z,16.70
2018-03-19T13:19:54.044Z,16.30
2018-03-19T13:22:20.813Z,17.85
2018-03-19T13:24:47.590Z,18.10
2018-03-19T13:27:14.425Z,18.73
2018-03-19T13:29:41.239Z,18.70
2018-03-19T13:32:07.987Z,17.00
2018-03-19T13:34:34.724Z,17.80
2018-03-19T13:37:01.461Z,16.93
2018-03-19T13:39:28.264Z,17.33
2018-03-19T13:41:55.575Z,17.63
2018-03-19T13:44:22.319Z,16.73
2018-03-19T13:46:49.054Z,17.17
2018-03-19T13:49:15.837Z,17.27
2018-03-19T13:51:42.634Z,19.52
2018-03-19T13:54:09.378Z,19.02
2018-03-19T13:56:36.169Z,18.20
2018-03-19T13:59:02.965Z,16.02
2018-03-19T14:01:29.717Z,17.30
2018-03-19T14:03:56.479Z,17.25
2018-03-19T14:06:23.220Z,16.17
2018-03-19T14:08:49.958Z,18.77
2018-03-19T14:11:16.702Z,18.17
2018-03-19T14:13:43.442Z,16.62
2018-03-19T14:16:10.202Z,19.00
2018-03-19T14:18:36.958Z,18.23
2018-03-19T14:21:03.683Z,16.90
2018-03-19T14:23:30.452Z,16.98
2018-03-19T14:25:57.204Z,16.98
2018-03-19T14:28:23.925Z,17.80
2018-03-19T14:30:50.656Z,17.03
2018-03-19T14:33:17.415Z,17.67
2018-03-19T14:35:44.146Z,18.93
2018-03-19T14:38:10.899Z,17.37
2018-03-19T14:40:37.619Z,16.83
2018-03-19T14:43:04.391Z,16.08
2018-03-19T14:45:31.131Z,16.63
2018-03-19T14:47:57.910Z,17.73
2018-03-19T14:50:24.681Z,18.27
2018-03-19T14:52:51.449Z,16.17
2018-03-19T14:55:18.177Z,17.50
2018-03-19T14:57:44.934Z,16.25
2018-03-19T15:00:11.675Z,16.67
2018-03-19T15:02:38.433Z,16.52
2018-03-19T15:05:05.224Z,17.20
2018-03-19T15:07:31.966Z,16.37
2018-03-19T15:09:58.737Z,17.92
2018-03-19T15:12:25.493Z,17.30
2018-03-19T15:14:52.236Z,17.92
2018-03-19T15:17:18.978Z,16.17
2018-03-19T15:19:45.705Z,15.57
2018-03-19T15:22:12.438Z,14.90
2018-03-19T15:24:39.193Z,17.60
2018-03-19T15:27:05.932Z,17.58
2018-03-19T15:29:32.680Z,16.62
2018-03-19T15:31:59.419Z,17.98
2018-03-19T15:34:26.182Z,16.58
2018-03-19T15:36:52.970Z,16.95
2018-03-19T15:39:19.734Z,15.85
2018-03-19T15:41:46.481Z,16.48
2018-03-19T15:44:13.237Z,14.87
2018-03-19T15:46:39.993Z,15.25
2018-03-19T15:49:06.772Z,16.20
2018-03-19T15:51:33.543Z,16.80
2018-03-19T15:54:00.304Z,16.00
2018-03-19T15:56:27.828Z,16.55
2018-03-19T15:58:54.433Z,17.70
2018-03-19T16:01:21.190Z,17.95
2018-03-19T16:03:48.070Z,18.15
2018-03-19T16:06:14.818Z,19.27
2018-03-19T16:08:41.559Z,19.13
2018-03-19T16:11:08.304Z,18.37
2018-03-19T16:13:35.056Z,19.67
2018-03-19T16:16:01.817Z,20.12
2018-03-19T16:18:28.610Z,19.17
2018-03-19T16:20:55.383Z,18.92
2018-03-19T16:23:22.184Z,18.87
2018-03-19T16:25:48.933Z,16.92
2018-03-19T16:28:15.720Z,17.50
2018-03-19T16:30:42.533Z,19.50
2018-03-19T16:33:09.281Z,16.48
2018-03-19T16:35:36.957Z,17.85
2018-03-19T16:38:03.745Z,18.08
2018-03-19T16:40:30.516Z,17.73
2018-03-19T16:42:57.267Z,18.15
2018-03-19T16:45:24.009Z,18.12
2018-03-19T16:47:50.800Z,18.30
2018-03-19T16:50:17.578Z,18.48
2018-03-19T16:52:44.343Z,18.05
2018-03-19T16:55:11.089Z,18.67
2018-03-19T16:57:37.954Z,17.42
2018-03-19T17:00:04.715Z,18.62
2018-03-19T17:02:31.482Z,19.48
2018-03-19T17:04:58.237Z,21.30
2018-03-19T17:07:24.991Z,21.23
2018-03-19T17:09:51.747Z,22.55
2018-03-19T17:12:18.530Z,22.30
2018-03-19T17:14:45.285Z,22.95
2018-03-19T17:17:12.040Z,22.87
2018-03-19T17:19:38.787Z,24.45
2018-03-19T17:22:05.554Z,24.42
2018-03-19T17:24:32.319Z,22.45
2018-03-19T17:26:59.059Z,24.58
2018-03-19T17:29:25.831Z,22.20
2018-03-19T17:31:52.580Z,24.05
2018-03-19T17:34:19.342Z,24.98
2018-03-19T17:36:46.101Z,25.80
2018-03-19T17:39:12.864Z,22.67
2018-03-19T17:41:39.654Z,22.70
2018-03-19T17:44:06.400Z,24.67
2018-03-19T17:46:33.164Z,22.58
2018-03-19T17:48:59.918Z,22.13
2018-03-19T17:51:26.662Z,22.70
2018-03-19T17:53:53.412Z,20.37
2018-03-19T17:56:20.179Z,22.85
2018-03-19T17:58:46.940Z,22.45
2018-03-19T18:01:13.728Z,22.90
2018-03-19T18:03:40.485Z,22.60
2018-03-19T18:06:07.255Z,23.90
2018-03-19T18:08:34.003Z,23.05
2018-03-19T18:11:00.773Z,24.58
2018-03-19T18:13:27.575Z,25.17
2018-03-19T18:15:54.335Z,23.50
2018-03-19T18:18:21.087Z,23.60
2018-03-19T18:20:47.867Z,25.20
2018-03-19T18:23:14.630Z,24.55
2018-03-19T18:25:42.902Z,25.98
2018-03-19T18:28:09.778Z,25.67
2018-03-19T18:30:36.538Z,24.33
2018-03-19T18:33:03.371Z,23.40
2018-03-19T18:35:30.146Z,23.15
2018-03-19T18:37:56.904Z,22.70
2018-03-19T18:40:23.702Z,23.00
2018-03-19T18:42:50.453Z,24.05
2018-03-19T18:45:17.676Z,24.87
2018-03-19T18:47:44.494Z,24.75
2018-03-19T18:50:11.260Z,24.37
2018-03-19T18:52:38.030Z,24.10
2018-03-19T18:55:04.817Z,25.75
2018-03-19T18:57:31.606Z,26.50
2018-03-19T18:59:58.354Z,26.55
2018-03-19T19:02:25.111Z,27.42
2018-03-19T19:04:51.876Z,26.20
2018-03-19T19:07:18.648Z,24.23
2018-03-19T19:09:45.384Z,25.10
2018-03-19T19:12:12.151Z,24.45
2018-03-19T19:14:38.906Z,23.67
2018-03-19T19:17:05.665Z,23.48
2018-03-19T19:19:32.420Z,21.83
2018-03-19T19:21:59.189Z,21.80
2018-03-19T19:24:25.932Z,24.67
2018-03-19T19:26:52.874Z,23.45
2018-03-19T19:29:20.360Z,23.92
2018-03-19T19:31:47.545Z,23.87
2018-03-19T19:34:14.429Z,25.23
2018-03-19T19:36:41.196Z,25.73
2018-03-19T19:39:08.630Z,25.23
2018-03-19T19:41:35.400Z,25.33
2018-03-19T19:44:02.243Z,24.17
2018-03-19T19:46:29.009Z,23.25
2018-03-19T19:48:55.767Z,23.40
2018-03-19T19:51:22.606Z,23.40
2018-03-19T19:53:49.443Z,23.00
2018-03-19T19:56:16.337Z,21.02
2018-03-19T19:58:43.128Z,22.25
2018-03-19T20:01:09.923Z,21.60
2018-03-19T20:03:36.867Z,22.52
2018-03-19T20:06:03.666Z,20.65
2018-03-19T20:08:30.456Z,21.87
2018-03-19T20:10:57.216Z,21.23
2018-03-19T20:13:24.129Z,23.30
2018-03-19T20:15:50.903Z,21.62
2018-03-19T20:18:17.685Z,26.30
2018-03-19T20:20:44.419Z,23.77
2018-03-19T20:23:11.441Z,23.75
2018-03-19T20:25:38.343Z,25.00
2018-03-19T20:28:05.094Z,25.30
2018-03-19T20:30:31.878Z,22.55
2018-03-19T20:32:58.906Z,23.83
2018-03-19T20:35:25.884Z,23.48
2018-03-19T20:37:52.748Z,21.95
2018-03-19T20:40:19.512Z,22.65
2018-03-19T20:42:46.291Z,22.40
2018-03-19T20:45:13.099Z,23.42
2018-03-19T20:47:39.856Z,23.25
2018-03-19T20:50:06.596Z,23.02
2018-03-19T20:52:33.348Z,23.95
2018-03-19T20:55:00.103Z,21.48
2018-03-19T20:57:26.878Z,23.92
2018-03-19T20:59:53.674Z,24.45
2018-03-19T21:02:20.439Z,21.80
2018-03-19T21:04:47.207Z,23.00
2018-03-19T21:07:13.987Z,25.77
2018-03-19T21:09:40.774Z,22.92
2018-03-19T21:12:07.527Z,23.00
2018-03-19T21:14:34.270Z,23.33
2018-03-19T21:17:01.003Z,24.55
2018-03-19T21:19:27.790Z,21.98
2018-03-19T21:21:54.534Z,25.40
2018-03-19T21:24:21.277Z,24.12
2018-03-19T21:26:48.019Z,24.27
2018-03-19T21:29:14.758Z,23.33
2018-03-19T21:31:41.502Z,24.87
2018-03-19T21:34:08.298Z,24.48
2018-03-19T21:36:35.048Z,26.30
2018-03-19T21:39:01.796Z,25.42
2018-03-19T21:41:28.534Z,24.05
2018-03-19T21:43:55.278Z,25.88
2018-03-19T21:46:22.025Z,23.87
2018-03-19T21:48:48.773Z,24.15
2018-03-19T21:51:15.515Z,24.90
2018-03-19T21:53:42.286Z,23.70
2018-03-19T21:56:09.139Z,23.52
2018-03-19T21:58:35.871Z,24.25
2018-03-19T22:01:02.622Z,24.95
2018-03-19T22:03:29.380Z,22.80
2018-03-19T22:05:56.150Z,23.95
2018-03-19T22:08:22.904Z,23.85
2018-03-19T22:10:49.644Z,22.48
2018-03-19T22:13:16.421Z,23.27
2018-03-19T22:15:43.170Z,23.75
2018-03-19T22:18:09.935Z,23.30
2018-03-19T22:20:36.704Z,22.15
2018-03-19T22:23:03.443Z,23.08
2018-03-19T22:25:30.180Z,25.00
2018-03-19T22:27:56.926Z,26.10
2018-03-19T22:30:23.660Z,23.95
2018-03-19T22:32:50.400Z,25.02
2018-03-19T22:35:17.143Z,25.30
2018-03-19T22:37:43.883Z,26.55
2018-03-19T22:40:10.637Z,24.27
2018-03-19T22:42:37.364Z,25.98
2018-03-19T22:45:04.095Z,25.58
2018-03-19T22:47:30.827Z,23.33
2018-03-19T22:49:57.582Z,22.87
2018-03-19T22:52:24.326Z,23.25
2018-03-19T22:54:51.063Z,23.52
2018-03-19T22:57:17.806Z,23.02
2018-03-19T22:59:44.654Z,22.50
2018-03-19T23:02:11.395Z,22.67
2018-03-19T23:04:44.195Z,23.25
2018-03-19T23:07:10.942Z,23.10
2018-03-19T23:09:37.674Z,22.35
2018-03-19T23:12:04.416Z,22.48
2018-03-19T23:14:31.154Z,22.58
2018-03-19T23:16:57.889Z,23.38
2018-03-19T23:19:24.627Z,22.67
2018-03-19T23:21:51.375Z,22.70
2018-03-19T23:24:18.109Z,25.33
2018-03-19T23:26:44.858Z,23.52
2018-03-19T23:29:11.593Z,20.98
2018-03-19T23:31:38.350Z,24.40
2018-03-19T23:34:05.101Z,22.92
2018-03-19T23:36:31.844Z,24.65
2018-03-19T23:38:58.578Z,25.15
2018-03-19T23:41:25.316Z,24.95
2018-03-19T23:43:52.054Z,23.80
2018-03-19T23:46:18.794Z,23.02
2018-03-19T23:48:45.571Z,22.95
2018-03-19T23:51:12.306Z,24.23
2018-03-19T23:53:39.064Z,25.25
2018-03-19T23:56:05.808Z,23.17
2018-03-19T23:58:32.550Z,21.02
